Time;durP1;ratioP1;P1;durP2;ratioP2;P2;SDS_P1;SDS_P2;PMS_P1;PMS_P2;Temp;Humidity;BMP_temperature;BMP_pressure;BME280_temperature;BME280_humidity;BME280_pressure;Samples;Min_cycle;Max_cycle;Signal;HPM_P1;HPM_P2
2021/12/30 00:00:50;;;;;;;11.35;2.90;;;;;;;20.74;42.81;101072.88;7314564;19;130490;-60
2021/12/30 00:03:17;;;;;;;8.75;3.13;;;;;;;20.72;42.87;101078.72;7309829;19;128859;-60
2021/12/30 00:05:44;;;;;;;12.68;3.33;;;;;;;20.71;42.78;101076.19;7315262;19;131049;-60
2021/12/30 00:08:11;;;;;;;10.80;3.30;;;;;;;20.69;42.90;101087.56;7309999;19;131435;-60
2021/12/30 00:10:40;;;;;;;10.30;3.13;;;;;;;20.67;43.18;101081.41;7313825;19;130519;-60
2021/12/30 00:13:07;;;;;;;10.90;3.20;;;;;;;20.67;43.22;101083.38;7310540;19;129223;-60
2021/12/30 00:15:35;;;;;;;13.02;3.40;;;;;;;20.65;43.20;101078.03;7312889;19;128894;-60
2021/12/30 00:18:03;;;;;;;10.65;3.03;;;;;;;20.64;43.24;101070.81;7311429;19;130644;-60
2021/12/30 00:20:30;;;;;;;10.95;3.72;;;;;;;20.63;43.34;101074.69;7312641;19;130634;-60
2021/12/30 00:23:02;;;;;;;13.27;3.83;;;;;;;20.62;42.94;101072.16;7318275;19;129113;-60
2021/12/30 00:25:37;;;;;;;13.35;2.90;;;;;;;20.60;43.30;101070.47;7319253;19;129332;-60
2021/12/30 00:28:10;;;;;;;11.50;2.95;;;;;;;20.58;43.30;101072.66;7320291;19;131770;-60
2021/12/30 00:30:37;;;;;;;11.38;3.28;;;;;;;20.56;42.90;101069.31;7317386;19;130450;-60
2021/12/30 00:33:04;;;;;;;10.88;2.95;;;;;;;20.55;43.34;101070.44;7319605;19;128811;-60
2021/12/30 00:35:32;;;;;;;8.82;2.80;;;;;;;20.54;42.98;101073.44;7317106;19;129103;-60
2021/12/30 00:37:59;;;;;;;9.05;3.38;;;;;;;20.53;43.41;101078.16;7318483;19;130474;-60
2021/12/30 00:40:26;;;;;;;9.30;3.08;;;;;;;20.52;43.42;101079.28;7317062;19;130664;-60
2021/12/30 00:42:53;;;;;;;10.25;3.08;;;;;;;20.51;43.18;101077.59;7320136;19;128974;-61
2021/12/30 00:45:20;;;;;;;11.60;3.22;;;;;;;20.50;43.48;101084.25;7316545;19;129737;-60
2021/12/30 00:47:47;;;;;;;10.88;3.20;;;;;;;20.50;43.46;101080.59;7317022;19;130729;-60
2021/12/30 00:50:14;;;;;;;11.65;3.58;;;;;;;20.48;43.16;101078.09;7318755;19;130523;-60
2021/12/30 00:52:41;;;;;;;11.82;2.92;;;;;;;20.48;43.01;101080.88;7317716;19;129002;-60
2021/12/30 00:55:08;;;;;;;9.20;2.90;;;;;;;20.47;43.41;101093.06;7319925;19;128928;-60
2021/12/30 00:57:35;;;;;;;14.35;3.63;;;;;;;20.46;43.00;101105.28;7316414;19;130896;-60
2021/12/30 01:00:06;;;;;;;10.63;3.13;;;;;;;20.45;43.43;101098.03;7319637;19;130587;-60
2021/12/30 01:02:33;;;;;;;8.98;2.72;;;;;;;20.44;42.97;101099.13;7316082;19;128786;-60
2021/12/30 01:05:00;;;;;;;8.63;2.50;;;;;;;20.43;43.26;101094.69;7318834;19;130526;-60
2021/12/30 01:07:27;;;;;;;9.48;3.03;;;;;;;20.42;43.45;101102.19;7316122;19;130591;-60
2021/12/30 01:09:53;;;;;;;11.73;3.15;;;;;;;20.41;43.27;101094.09;7319226;19;131126;-60
2021/12/30 01:12:20;;;;;;;11.10;2.60;;;;;;;20.40;43.28;101098.81;7316503;19;129004;-60
2021/12/30 01:14:48;;;;;;;8.95;2.72;;;;;;;20.39;43.05;101099.91;7317077;19;129169;-60
2021/12/30 01:17:28;;;;;;;9.93;3.05;;;;;;;20.39;43.29;101101.84;7316405;19;130609;-60
2021/12/30 01:19:54;;;;;;;8.65;3.03;;;;;;;20.39;42.84;101115.75;7316181;19;130495;-60
2021/12/30 01:22:26;;;;;;;11.52;3.65;;;;;;;20.38;43.02;101108.50;7317778;19;129760;-60
2021/12/30 01:24:55;;;;;;;13.35;3.00;;;;;;;20.36;43.02;101106.00;7316184;19;129950;-60
2021/12/30 01:27:21;;;;;;;12.68;3.30;;;;;;;20.36;43.27;101102.34;7317216;19;130838;-60
2021/12/30 01:29:49;;;;;;;7.65;2.83;;;;;;;20.34;43.04;101099.84;7317462;19;130631;-60
2021/12/30 01:32:16;;;;;;;9.38;2.42;;;;;;;20.34;43.32;101101.75;7316927;19;128809;-60
2021/12/30 01:34:43;;;;;;;9.73;2.45;;;;;;;20.33;43.15;101105.63;7315579;19;128983;-61
2021/12/30 01:37:12;;;;;;;8.15;2.70;;;;;;;20.32;43.41;101117.84;7316741;19;130614;-60
2021/12/30 01:39:39;;;;;;;10.77;2.85;;;;;;;20.32;43.41;101112.28;7315694;19;131326;-60
2021/12/30 01:42:08;;;;;;;10.77;2.97;;;;;;;20.31;43.51;101117.00;7318157;19;128866;-60
2021/12/30 01:44:35;;;;;;;10.70;2.63;;;;;;;20.31;43.36;101117.00;7316711;19;129571;-60
2021/12/30 01:47:04;;;;;;;8.80;2.65;;;;;;;20.29;43.20;101114.50;7314727;19;130908;-60
2021/12/30 01:49:31;;;;;;;10.27;3.15;;;;;;;20.28;43.62;101123.91;7315655;19;131143;-60
2021/12/30 01:51:58;;;;;;;9.52;2.90;;;;;;;20.26;43.53;101122.47;7315897;19;129341;-60
2021/12/30 01:54:26;;;;;;;7.78;2.45;;;;;;;20.27;43.13;101116.69;7316696;19;128950;-60
2021/12/30 01:56:58;;;;;;;8.00;2.60;;;;;;;20.26;43.19;101115.00;7316646;19;131363;-60
2021/12/30 01:59:25;;;;;;;10.85;2.72;;;;;;;20.25;43.36;101113.31;7316486;19;130613;-60
2021/12/30 02:01:56;;;;;;;7.38;2.45;;;;;;;20.24;43.43;101111.63;7318323;19;128771;-60
2021/12/30 02:04:31;;;;;;;10.20;3.22;;;;;;;20.23;43.30;101121.03;7314123;19;131024;-60
2021/12/30 02:06:58;;;;;;;9.38;2.95;;;;;;;20.22;43.42;101124.91;7316786;19;130655;-60
2021/12/30 02:09:26;;;;;;;7.03;2.80;;;;;;;20.21;43.32;101119.63;7315450;19;130458;-60
2021/12/30 02:11:54;;;;;;;13.27;2.80;;;;;;;20.21;43.34;101112.13;7318087;19;128825;-60
2021/12/30 02:14:20;;;;;;;7.03;2.20;;;;;;;20.20;43.44;101115.16;7314420;19;129094;-60
2021/12/30 02:16:47;;;;;;;11.32;2.80;;;;;;;20.19;43.62;101114.31;7315051;19;130592;-60
2021/12/30 02:19:14;;;;;;;12.45;2.72;;;;;;;20.18;43.47;101109.00;7314268;19;130558;-60
2021/12/30 02:21:41;;;;;;;8.88;2.70;;;;;;;20.18;43.17;101106.22;7313810;19;129034;-60
2021/12/30 02:24:08;;;;;;;7.53;2.40;;;;;;;20.18;43.60;101107.09;7316386;19;128701;-60
2021/12/30 02:26:35;;;;;;;6.55;2.75;;;;;;;20.17;43.57;101116.53;7316215;19;130507;-60
2021/12/30 02:29:03;;;;;;;9.10;2.30;;;;;;;20.17;43.36;101115.66;7315348;19;130412;-60
2021/12/30 02:31:31;;;;;;;6.32;1.90;;;;;;;20.16;43.67;101109.28;7316541;19;128809;-60
2021/12/30 02:34:00;;;;;;;7.38;2.00;;;;;;;20.16;43.56;101119.53;7314946;19;128876;-61
2021/12/30 02:36:32;;;;;;;9.63;2.53;;;;;;;20.16;43.13;101122.31;7317602;19;131055;-60
2021/12/30 02:39:02;;;;;;;7.95;2.75;;;;;;;20.14;43.22;101122.56;7312767;19;130891;-60
2021/12/30 02:41:33;;;;;;;10.05;2.85;;;;;;;20.14;43.32;101123.41;7316966;19;128792;-60
2021/12/30 02:44:01;;;;;;;7.30;2.40;;;;;;;20.14;43.30;101130.91;7311261;19;128984;-60
2021/12/30 02:46:29;;;;;;;6.88;2.20;;;;;;;20.13;43.04;101120.88;7316018;19;131494;-60
2021/12/30 02:48:59;;;;;;;6.93;1.98;;;;;;;20.13;43.58;101120.88;7312863;19;131043;-60
2021/12/30 02:51:27;;;;;;;4.88;1.80;;;;;;;20.11;43.46;101117.50;7313567;19;128830;-60
2021/12/30 02:53:54;;;;;;;7.35;2.55;;;;;;;20.11;43.52;101132.25;7313619;19;129421;-60
2021/12/30 02:56:23;;;;;;;6.60;2.30;;;;;;;20.11;43.30;101134.19;7314577;19;131205;-60
2021/12/30 02:58:50;;;;;;;7.93;2.20;;;;;;;20.09;43.31;101125.25;7313807;19;131219;-60
2021/12/30 03:01:20;;;;;;;7.38;2.25;;;;;;;20.10;42.97;101138.03;7315379;19;129466;-60
2021/12/30 03:03:48;;;;;;;5.85;2.10;;;;;;;20.09;43.17;101144.69;7316343;19;128814;-60
2021/12/30 03:06:16;;;;;;;7.30;2.33;;;;;;;20.08;43.29;101145.78;7313408;19;130824;-60
2021/12/30 03:08:45;;;;;;;6.07;1.90;;;;;;;20.07;43.56;101144.94;7315238;19;130468;-60
2021/12/30 03:11:12;;;;;;;7.03;1.95;;;;;;;20.06;43.34;101146.03;7312870;19;129319;-60
2021/12/30 03:13:42;;;;;;;7.63;2.00;;;;;;;20.06;43.70;101153.53;7313192;19;129439;-60
2021/12/30 03:16:15;;;;;;;5.93;2.10;;;;;;;20.06;43.21;101148.00;7311662;19;130654;-60
2021/12/30 03:18:45;;;;;;;5.70;1.95;;;;;;;20.05;43.32;101149.09;7313697;19;130574;-60
2021/12/30 03:21:17;;;;;;;4.72;1.95;;;;;;;20.04;43.25;101150.16;7312536;19;129041;-60
2021/12/30 03:23:45;;;;;;;5.75;2.15;;;;;;;20.02;43.12;101158.72;7314349;19;128703;-60
2021/12/30 03:26:12;;;;;;;5.97;2.00;;;;;;;20.02;43.12;101161.50;7314347;19;131537;-60
2021/12/30 03:28:40;;;;;;;6.82;1.55;;;;;;;20.02;43.43;101164.28;7312583;19;130932;-61
2021/12/30 03:31:08;;;;;;;7.03;2.42;;;;;;;20.01;43.49;101161.78;7314216;19;130249;-60
2021/12/30 03:33:35;;;;;;;5.13;1.73;;;;;;;20.00;43.33;101166.47;7312268;19;128955;-60
2021/12/30 03:36:04;;;;;;;4.38;1.98;;;;;;;19.99;43.31;101165.63;7315679;19;131161;-60
2021/12/30 03:38:34;;;;;;;5.60;1.75;;;;;;;19.99;43.54;101168.41;7311466;19;130588;-60
2021/12/30 03:41:03;;;;;;;4.72;1.98;;;;;;;19.98;43.15;101179.75;7315288;19;129433;-60
2021/12/30 03:43:29;;;;;;;5.32;1.83;;;;;;;19.97;43.51;101170.56;7311846;19;129460;-60
2021/12/30 03:45:57;;;;;;;3.97;1.58;;;;;;;19.97;43.56;101170.56;7312461;19;130639;-60
2021/12/30 03:48:32;;;;;;;4.47;1.55;;;;;;;19.96;43.15;101174.44;7310277;19;130364;-60
2021/12/30 03:51:04;;;;;;;3.88;1.70;;;;;;;19.96;43.60;101177.22;7313036;19;128919;-60
2021/12/30 03:53:38;;;;;;;8.18;1.73;;;;;;;19.94;43.23;101168.28;7312010;19;129201;-61
2021/12/30 03:56:06;;;;;;;5.32;1.60;;;;;;;19.94;43.26;101173.84;7311900;19;130557;-60
2021/12/30 03:58:33;;;;;;;4.20;1.60;;;;;;;19.94;43.34;101173.00;7313750;19;130509;-60
2021/12/30 04:01:00;;;;;;;4.03;1.50;;;;;;;19.93;43.50;101174.94;7311735;19;128903;-60
2021/12/30 04:03:28;;;;;;;3.28;1.27;;;;;;;19.93;43.07;101169.41;7312926;19;129327;-60
2021/12/30 04:05:55;;;;;;;5.22;1.70;;;;;;;19.91;43.21;101166.03;7311348;19;131774;-60
2021/12/30 04:08:21;;;;;;;3.83;1.40;;;;;;;19.91;43.29;101184.59;7313904;19;130823;-60
2021/12/30 04:10:48;;;;;;;5.30;1.30;;;;;;;19.92;43.17;101169.63;7310831;19;129267;-60
2021/12/30 04:13:15;;;;;;;4.95;1.70;;;;;;;19.90;43.08;101169.88;7314233;19;129031;-60
2021/12/30 04:15:42;;;;;;;3.47;1.23;;;;;;;19.89;43.31;101162.66;7312236;19;131551;-60
2021/12/30 04:18:09;;;;;;;3.67;1.20;;;;;;;19.89;43.29;101159.88;7312757;19;130564;-60
2021/12/30 04:20:35;;;;;;;3.55;1.35;;;;;;;19.89;43.49;101182.09;7312376;19;128828;-60
2021/12/30 04:23:02;;;;;;;4.18;1.40;;;;;;;19.88;43.56;101185.94;7312880;19;128958;-60
2021/12/30 04:25:29;;;;;;;5.43;1.55;;;;;;;19.88;43.43;101185.94;7313827;19;130814;-60
2021/12/30 04:27:56;;;;;;;3.03;1.30;;;;;;;19.87;43.24;101184.25;7311332;19;131261;-60
2021/12/30 04:30:23;;;;;;;3.47;1.13;;;;;;;19.87;43.27;101189.00;7312968;19;129721;-60
2021/12/30 04:32:49;;;;;;;3.50;1.40;;;;;;;19.86;43.25;101204.78;7310506;19;129671;-60
2021/12/30 04:35:16;;;;;;;6.00;1.60;;;;;;;19.87;43.13;101206.47;7313858;19;130439;-60
2021/12/30 04:37:43;;;;;;;5.30;1.33;;;;;;;19.85;43.45;101203.09;7310467;19;130469;-60
2021/12/30 04:40:11;;;;;;;2.72;1.10;;;;;;;19.85;43.29;101208.66;7313314;19;131116;-60
2021/12/30 04:42:38;;;;;;;4.03;1.15;;;;;;;19.86;43.26;101215.06;7307805;19;129119;-60
2021/12/30 04:45:06;;;;;;;5.57;1.33;;;;;;;19.86;43.06;101215.06;7312694;19;131280;-60
2021/12/30 04:47:33;;;;;;;2.25;1.08;;;;;;;19.84;43.26;101212.50;7309560;19;130689;-60
2021/12/30 04:50:00;;;;;;;2.60;1.17;;;;;;;19.83;42.98;101210.81;7312782;19;128969;-60
2021/12/30 04:52:27;;;;;;;4.03;1.33;;;;;;;19.83;43.32;101216.38;7309618;19;128783;-60
2021/12/30 04:54:54;;;;;;;2.83;1.05;;;;;;;19.82;42.99;101221.09;7311996;19;130713;-60
2021/12/30 04:57:21;;;;;;;2.22;1.05;;;;;;;19.82;43.44;101214.69;7308876;19;130564;-60
2021/12/30 04:59:47;;;;;;;3.65;0.82;;;;;;;19.82;43.17;101225.78;7309350;19;129043;-60
2021/12/30 05:02:14;;;;;;;4.53;1.38;;;;;;;19.80;43.19;101219.69;7311563;19;130325;-60
2021/12/30 05:04:41;;;;;;;4.05;1.35;;;;;;;19.81;43.00;101224.13;7308879;19;131096;-60
2021/12/30 05:07:08;;;;;;;2.13;0.80;;;;;;;19.81;43.44;101219.41;7311001;19;131226;-60
2021/12/30 05:09:35;;;;;;;2.40;1.10;;;;;;;19.80;43.38;101222.44;7317000;19;128733;-60
2021/12/30 05:12:02;;;;;;;2.30;0.77;;;;;;;19.79;43.04;101216.03;7319536;19;128944;-61
2021/12/30 05:14:29;;;;;;;2.90;1.00;;;;;;;19.79;43.27;101224.38;7316194;19;131391;-60
2021/12/30 05:17:02;;;;;;;2.95;1.10;;;;;;;19.79;43.19;101227.13;7318574;19;130305;-60
2021/12/30 05:19:30;;;;;;;3.28;0.95;;;;;;;19.80;43.16;101233.56;7317654;19;128918;-60
2021/12/30 05:21:58;;;;;;;2.70;1.02;;;;;;;19.78;42.97;101225.44;7319138;19;129076;-60
2021/12/30 05:24:25;;;;;;;2.17;0.80;;;;;;;19.78;43.18;101208.78;7315205;19;130761;-60
2021/12/30 05:26:51;;;;;;;3.28;1.00;;;;;;;19.77;43.16;101223.75;7317808;19;130659;-60
2021/12/30 05:29:18;;;;;;;2.88;0.90;;;;;;;19.78;43.06;101221.84;7318583;19;128751;-60
2021/12/30 05:31:45;;;;;;;1.50;0.80;;;;;;;19.79;43.49;101226.31;7316692;19;129831;-60
2021/12/30 05:34:12;;;;;;;2.00;0.98;;;;;;;19.78;43.09;101219.06;7317907;19;130767;-60
2021/12/30 05:36:39;;;;;;;1.83;0.90;;;;;;;19.78;43.05;101219.06;7316377;19;130669;-60
2021/12/30 05:39:05;;;;;;;1.70;0.82;;;;;;;19.78;43.06;101230.19;7317959;19;129006;-60
2021/12/30 05:41:32;;;;;;;2.35;0.88;;;;;;;19.78;43.07;101235.72;7315285;19;129906;-60
2021/12/30 05:44:00;;;;;;;2.42;0.88;;;;;;;19.77;43.00;101240.41;7316814;19;131092;-62
2021/12/30 05:46:27;;;;;;;1.50;0.88;;;;;;;19.78;42.81;101246.84;7315060;19;130537;-60
2021/12/30 05:48:54;;;;;;;3.30;0.70;;;;;;;19.77;43.22;101245.16;7318015;19;128820;-60
2021/12/30 05:51:21;;;;;;;1.45;0.73;;;;;;;19.77;43.18;101256.25;7314185;19;128815;-60
2021/12/30 05:53:47;;;;;;;2.65;0.88;;;;;;;19.78;42.76;101257.94;7318741;19;130647;-60
2021/12/30 05:56:14;;;;;;;1.38;0.60;;;;;;;19.77;42.83;101253.47;7315325;19;130565;-60
2021/12/30 05:58:41;;;;;;;1.58;0.70;;;;;;;19.77;42.91;101250.69;7317142;19;128710;-60
2021/12/30 06:01:07;;;;;;;3.10;0.82;;;;;;;19.77;43.20;101245.16;7317136;19;129199;-60
2021/12/30 06:03:34;;;;;;;1.25;0.70;;;;;;;19.78;42.90;101257.94;7316989;19;130760;-58
2021/12/30 06:06:01;;;;;;;1.20;0.70;;;;;;;19.76;43.14;101254.56;7317435;19;130716;-60
2021/12/30 06:08:28;;;;;;;1.63;0.80;;;;;;;19.76;42.86;101257.34;7316946;19;128740;-60
2021/12/30 06:10:54;;;;;;;0.90;0.55;;;;;;;19.77;42.77;101250.69;7318177;19;129006;-60
2021/12/30 06:13:21;;;;;;;3.25;0.70;;;;;;;19.76;42.86;101251.78;7315351;19;130577;-60
2021/12/30 06:15:48;;;;;;;2.15;0.70;;;;;;;19.76;43.07;101266.50;7314962;19;131490;-60
2021/12/30 06:18:14;;;;;;;1.80;0.95;;;;;;;19.76;43.03;101271.22;7313698;19;130201;-60
2021/12/30 06:20:41;;;;;;;0.98;0.52;;;;;;;19.76;42.87;101279.53;7312834;19;129138;-60
2021/12/30 06:23:08;;;;;;;0.98;0.57;;;;;;;19.75;42.91;101270.38;7312114;19;130582;-60
2021/12/30 06:25:34;;;;;;;1.42;0.60;;;;;;;19.75;42.68;101278.72;7315763;19;130578;-60
2021/12/30 06:28:01;;;;;;;1.40;0.60;;;;;;;19.74;43.08;101271.47;7311938;19;131429;-60
2021/12/30 06:30:28;;;;;;;6.05;0.90;;;;;;;19.74;43.22;101267.84;7314188;19;129018;-60
2021/12/30 06:32:54;;;;;;;1.33;0.68;;;;;;;19.74;43.39;101263.16;7312744;19;132892;-60
2021/12/30 06:35:21;;;;;;;3.10;0.52;;;;;;;19.77;43.11;101257.06;7315031;19;131068;-60
2021/12/30 06:37:48;;;;;;;1.98;0.50;;;;;;;19.81;43.27;101266.59;7313261;19;130026;-60
2021/12/30 06:40:15;;;;;;;1.65;0.50;;;;;;;19.88;43.57;101274.78;7311740;19;128899;-60
2021/12/30 06:42:43;;;;;;;1.75;0.50;;;;;;;19.95;43.46;101272.72;7314566;19;130536;-60
2021/12/30 06:45:12;;;;;;;3.35;0.60;;;;;;;20.03;43.11;101267.91;7310791;19;131187;-60
2021/12/30 06:47:41;;;;;;;1.98;0.50;;;;;;;20.11;43.31;101278.59;7315857;19;128923;-60
2021/12/30 06:50:11;;;;;;;6.30;0.95;;;;;;;20.18;42.94;101276.53;7311902;19;128989;-60
2021/12/30 06:52:38;;;;;;;3.08;0.47;;;;;;;20.26;43.35;101292.81;7313535;19;132541;-59
2021/12/30 06:55:06;;;;;;;3.28;0.55;;;;;;;20.32;42.79;101306.78;7313719;19;131071;-60
2021/12/30 06:57:34;;;;;;;2.75;0.40;;;;;;;20.37;43.14;101306.88;7314567;19;129028;-60
2021/12/30 07:00:03;;;;;;;7.85;0.52;;;;;;;20.40;42.62;101323.06;7315734;19;128828;-60
2021/12/30 07:02:30;;;;;;;1.45;0.50;;;;;;;20.42;42.88;101318.09;7312954;19;130611;-60
2021/12/30 07:04:57;;;;;;;5.03;0.60;;;;;;;20.43;43.01;101325.34;7313930;19;131302;-60
2021/12/30 07:07:24;;;;;;;6.35;0.60;;;;;;;20.45;43.23;101334.25;7311392;19;129330;-61
2021/12/30 07:09:51;;;;;;;1.73;0.30;;;;;;;20.46;43.26;101324.84;7312194;19;129252;-60
2021/12/30 07:12:18;;;;;;;1.42;0.50;;;;;;;20.46;43.40;101324.84;7314636;19;130778;-60
2021/12/30 07:14:45;;;;;;;2.60;0.50;;;;;;;20.45;43.32;101328.69;7311619;19;130744;-60
2021/12/30 07:17:11;;;;;;;3.10;0.70;;;;;;;20.44;43.13;101327.88;7313773;19;128948;-60
2021/12/30 07:19:38;;;;;;;3.72;0.30;;;;;;;20.42;42.94;101324.50;7312393;19;129742;-61
2021/12/30 07:22:05;;;;;;;3.03;0.60;;;;;;;20.43;43.13;101328.13;7312589;19;130753;-60
2021/12/30 07:24:52;;;;;;;2.42;0.43;;;;;;;20.42;43.52;101340.34;7314294;19;132762;-61
2021/12/30 07:27:18;;;;;;;4.57;0.50;;;;;;;20.40;43.49;101340.56;7310905;19;129027;-60
2021/12/30 07:29:45;;;;;;;3.33;0.45;;;;;;;20.39;43.57;101343.59;7315096;19;128972;-61
2021/12/30 07:32:12;;;;;;;0.98;0.40;;;;;;;20.37;43.43;101349.41;7310066;19;131313;-60
2021/12/30 07:34:38;;;;;;;2.92;0.50;;;;;;;20.35;43.59;101351.59;7313194;19;130689;-60
2021/12/30 07:37:05;;;;;;;0.85;0.30;;;;;;;20.34;43.24;101349.06;7313118;19;129423;-60
2021/12/30 07:39:32;;;;;;;2.03;0.50;;;;;;;20.32;43.24;101365.13;7314701;19;128835;-60
2021/12/30 07:41:58;;;;;;;1.73;0.70;;;;;;;20.29;43.80;101359.00;7312518;19;130735;-60
2021/12/30 07:44:25;;;;;;;1.02;0.30;;;;;;;20.27;43.52;101372.28;7313768;19;130606;-60
2021/12/30 07:47:12;;;;;;;4.30;0.40;;;;;;;20.26;43.67;101370.59;7314292;19;128885;-61
2021/12/30 07:49:38;;;;;;;2.70;0.50;;;;;;;20.24;43.28;101366.38;7312078;19;130015;-60
2021/12/30 07:52:06;;;;;;;2.80;0.52;;;;;;;20.23;43.89;101376.63;7313934;19;130766;-61
2021/12/30 07:54:33;;;;;;;1.63;0.30;;;;;;;20.21;43.55;101378.81;7313212;19;130848;-60
2021/12/30 07:57:00;;;;;;;1.50;0.40;;;;;;;20.20;43.40;101382.66;7314444;19;128929;-61
2021/12/30 07:59:27;;;;;;;1.88;0.60;;;;;;;20.19;43.53;101380.16;7312826;19;129063;-61
2021/12/30 08:01:54;;;;;;;1.58;0.50;;;;;;;20.17;43.58;101379.56;7315466;19;130407;-60
2021/12/30 08:04:22;;;;;;;6.30;0.70;;;;;;;20.16;43.48;101377.84;7311786;19;130587;-60
2021/12/30 08:06:49;;;;;;;1.85;0.50;;;;;;;20.14;43.25;101370.63;7313804;19;129039;-60
2021/12/30 08:09:15;;;;;;;1.52;0.35;;;;;;;20.13;43.62;101387.53;7312295;19;129037;-60
2021/12/30 08:11:43;;;;;;;1.80;0.40;;;;;;;20.12;43.63;101396.97;7313420;19;130572;-60
2021/12/30 08:14:10;;;;;;;2.88;0.70;;;;;;;20.10;43.73;101400.00;7313791;19;130621;-61
2021/12/30 08:16:36;;;;;;;0.50;0.40;;;;;;;20.09;43.66;101409.41;7313489;19;128851;-60
2021/12/30 08:19:03;;;;;;;1.45;0.40;;;;;;;20.06;43.74;101420.19;7313645;19;129499;-61
2021/12/30 08:21:30;;;;;;;2.55;0.47;;;;;;;20.07;43.67;101421.84;7311830;19;130643;-60
2021/12/30 08:23:57;;;;;;;1.73;0.40;;;;;;;20.08;43.72;101413.28;7314908;19;130370;-61
2021/12/30 08:26:23;;;;;;;3.70;0.43;;;;;;;20.13;43.51;101420.88;7310940;19;129783;-61
2021/12/30 08:28:50;;;;;;;2.70;0.50;;;;;;;20.18;43.45;101412.66;7309991;19;129382;-61
2021/12/30 08:31:17;;;;;;;1.65;0.30;;;;;;;20.23;43.59;101412.75;7312859;19;131375;-61
2021/12/30 08:33:43;;;;;;;2.03;0.40;;;;;;;20.31;43.76;101410.69;7309047;19;130522;-61
2021/12/30 08:36:10;;;;;;;2.03;0.45;;;;;;;20.36;43.63;101424.69;7305911;19;130315;-61
2021/12/30 08:38:37;;;;;;;1.52;0.50;;;;;;;20.42;43.16;101429.25;7307175;19;130986;-61
2021/12/30 08:41:04;;;;;;;1.88;0.50;;;;;;;20.47;43.07;101431.31;7308525;19;130791;-61
2021/12/30 08:43:30;;;;;;;2.00;0.30;;;;;;;20.52;43.42;101432.25;7309589;19;130628;-60
2021/12/30 08:45:57;;;;;;;0.20;0.20;;;;;;;20.57;43.35;101440.66;7318871;19;128928;-61
2021/12/30 08:48:24;;;;;;;1.90;0.30;;;;;;;20.61;43.28;101435.47;7317519;19;128884;-61
2021/12/30 08:50:51;;;;;;;0.73;0.30;;;;;;;20.63;43.11;101436.06;7320112;19;130614;-60
2021/12/30 08:53:18;;;;;;;1.70;0.40;;;;;;;20.66;43.13;101429.19;7317024;19;131249;-61
2021/12/30 08:55:44;;;;;;;0.98;0.30;;;;;;;20.66;42.70;101421.66;7319750;19;129118;-60
2021/12/30 08:58:11;;;;;;;0.55;0.30;;;;;;;20.68;42.65;101430.63;7320455;19;129271;-61
2021/12/30 09:00:41;;;;;;;0.52;0.30;;;;;;;20.70;42.84;101433.13;7317081;19;131734;-61
2021/12/30 09:03:08;;;;;;;2.67;0.47;;;;;;;20.72;42.86;101436.50;7319938;19;131742;-61
2021/12/30 09:05:35;;;;;;;0.77;0.40;;;;;;;20.73;42.65;101430.72;7318445;19;129087;-61
2021/12/30 09:08:03;;;;;;;0.88;0.20;;;;;;;20.79;42.74;101436.41;7319152;19;128832;-61
2021/12/30 09:10:35;;;;;;;1.13;0.30;;;;;;;20.81;42.47;101437.81;7317530;19;130740;-61
2021/12/30 09:13:02;;;;;;;0.60;0.30;;;;;;;20.84;42.50;101442.91;7320052;19;130718;-61
2021/12/30 09:15:30;;;;;;;2.25;0.40;;;;;;;20.85;42.60;101427.91;7317161;19;130272;-61
2021/12/30 09:17:57;;;;;;;1.00;0.30;;;;;;;20.87;42.80;101430.41;7320399;19;130140;-61
2021/12/30 09:20:24;;;;;;;1.10;0.45;;;;;;;20.88;42.38;101432.13;7317161;19;130585;-60
2021/12/30 09:22:52;;;;;;;1.02;0.20;;;;;;;20.89;42.53;101444.94;7319366;19;130628;-61
2021/12/30 09:25:23;;;;;;;2.55;0.40;;;;;;;20.89;42.56;101436.59;7317181;19;128809;-61
2021/12/30 09:27:52;;;;;;;2.58;0.50;;;;;;;20.88;42.49;101455.22;7318762;19;129019;-61
2021/12/30 09:30:19;;;;;;;0.85;0.32;;;;;;;20.88;42.57;101448.78;7318614;19;130781;-61
2021/12/30 09:32:47;;;;;;;1.00;0.40;;;;;;;20.88;42.79;101459.94;7315534;19;130568;-61
2021/12/30 09:35:14;;;;;;;1.90;0.25;;;;;;;20.85;42.59;101464.06;7318233;19;128836;-61
2021/12/30 09:37:42;;;;;;;2.90;0.40;;;;;;;20.85;42.66;101466.84;7315584;19;128918;-61
2021/12/30 09:40:13;;;;;;;2.05;0.50;;;;;;;20.86;42.80;101462.97;7316819;19;130610;-61
2021/12/30 09:42:44;;;;;;;3.00;0.52;;;;;;;20.87;42.65;101453.53;7316474;19;130597;-61
2021/12/30 09:45:14;;;;;;;0.93;0.45;;;;;;;20.90;42.33;101469.72;7316569;19;128991;-61
2021/12/30 09:47:52;;;;;;;2.50;0.50;;;;;;;20.94;42.71;101472.84;7319132;19;129443;-61
2021/12/30 09:50:22;;;;;;;4.43;0.70;;;;;;;20.96;42.68;101476.22;7316507;19;131568;-61
2021/12/30 09:52:50;;;;;;;3.05;0.50;;;;;;;20.97;42.38;101479.84;7317598;19;132304;-60
2021/12/30 09:55:17;;;;;;;1.17;0.35;;;;;;;20.97;42.42;101466.81;7318046;19;129632;-61
2021/12/30 09:57:45;;;;;;;1.73;0.60;;;;;;;20.99;42.53;101477.66;7316837;19;128965;-61
2021/12/30 10:00:13;;;;;;;2.17;0.70;;;;;;;20.99;42.35;101475.72;7316571;19;130797;-60
2021/12/30 10:02:41;;;;;;;3.20;0.80;;;;;;;20.99;42.60;101475.72;7317793;19;130515;-61
2021/12/30 10:05:15;;;;;;;1.85;0.60;;;;;;;21.00;42.27;101479.34;7317324;19;129589;-61
2021/12/30 10:07:43;;;;;;;1.60;0.57;;;;;;;21.02;42.43;101468.81;7313687;19;128923;-61
2021/12/30 10:10:33;;;;;;;3.83;0.85;;;;;;;21.05;42.67;101468.31;7318680;19;130683;-60
2021/12/30 10:13:13;;;;;;;1.63;0.57;;;;;;;21.06;42.31;101456.94;7316223;19;131266;-61
2021/12/30 10:15:46;;;;;;;1.33;0.60;;;;;;;21.10;42.11;101462.03;7315580;19;128813;-61
2021/12/30 10:18:13;;;;;;;3.30;0.90;;;;;;;21.11;42.31;101474.84;7316049;19;129964;-61
2021/12/30 10:20:41;;;;;;;1.42;0.65;;;;;;;21.11;42.08;101458.16;7315308;19;131474;-61
2021/12/30 10:23:20;;;;;;;2.45;0.80;;;;;;;21.11;42.14;101463.72;7313698;19;130623;-61
2021/12/30 10:25:50;;;;;;;4.15;0.75;;;;;;;21.09;42.05;101466.72;7316480;19;131749;-61
2021/12/30 10:28:36;;;;;;;3.83;0.70;;;;;;;21.09;42.08;101465.88;7315340;19;130111;-61
2021/12/30 10:31:11;;;;;;;2.40;0.75;;;;;;;21.08;42.52;101470.59;7314027;19;130324;-61
2021/12/30 10:33:58;;;;;;;3.38;0.57;;;;;;;21.09;42.36;101471.47;7316331;19;130647;-61
2021/12/30 10:36:29;;;;;;;2.72;0.70;;;;;;;21.08;42.57;101472.53;7317870;19;128675;-61
2021/12/30 10:39:15;;;;;;;3.17;0.77;;;;;;;21.08;42.48;101470.59;7315770;19;134448;-61
2021/12/30 10:41:42;;;;;;;2.63;0.83;;;;;;;21.08;42.50;101465.03;7314837;19;130731;-61
2021/12/30 10:44:09;;;;;;;2.55;0.82;;;;;;;21.08;42.33;101465.03;7316660;19;130626;-61
2021/12/30 10:46:36;;;;;;;2.40;0.70;;;;;;;21.08;42.36;101464.19;7315031;19;129788;-61
2021/12/30 10:49:11;;;;;;;2.90;0.55;;;;;;;21.09;42.02;101469.50;7315333;19;129447;-61
2021/12/30 10:51:40;;;;;;;4.50;0.88;;;;;;;21.08;42.53;101480.91;7317770;19;131019;-60
2021/12/30 10:54:13;;;;;;;2.38;0.60;;;;;;;21.09;42.09;101471.47;7313332;19;130568;-61
2021/12/30 10:56:46;;;;;;;4.43;1.00;;;;;;;21.10;42.22;101475.94;7314861;19;129146;-60
2021/12/30 10:59:33;;;;;;;3.95;1.17;;;;;;;21.11;42.48;101475.66;7316625;19;128834;-61
2021/12/30 11:02:22;;;;;;;2.20;0.90;;;;;;;21.13;42.22;101476.25;7313336;19;131366;-61
2021/12/30 11:05:04;;;;;;;2.15;0.80;;;;;;;21.14;42.40;101464.03;7312599;19;130426;-61
2021/12/30 11:07:37;;;;;;;3.00;0.93;;;;;;;21.14;42.19;101469.59;7316271;19;129084;-61
2021/12/30 11:10:05;;;;;;;2.60;0.85;;;;;;;21.12;42.21;101471.78;7317419;19;128916;-61
2021/12/30 11:12:34;;;;;;;2.90;1.00;;;;;;;21.13;42.31;101473.47;7314046;19;130798;-61
2021/12/30 11:15:05;;;;;;;3.97;0.95;;;;;;;21.12;42.29;101471.78;7314214;19;130651;-60
2021/12/30 11:17:34;;;;;;;2.92;0.90;;;;;;;21.13;41.98;101479.03;7316533;19;128755;-61
2021/12/30 11:20:07;;;;;;;3.42;1.00;;;;;;;21.12;42.24;101471.78;7313590;19;129243;-61
2021/12/30 11:22:40;;;;;;;2.75;1.13;;;;;;;21.14;42.36;101474.31;7314571;19;131085;-61